| Date | Time | Temp. (oF) | Dew Point (oF) | Rel. Hum. (%) | Press. (in.) | Wind Dir. | Wind Speed (mph) | Hourly Rainfall (in.) |
|
|---|---|---|---|---|---|---|---|---|---|
| 1 | 03/13 | 00:00 | 36 | 33 | 90 | 30.07 | SE | 0 | 0.00 |
| 2 | 03/12 | 23:00 | 37 | 34 | 89 | 30.08 | SSE | 1 | 0.00 |
| 3 | 03/12 | 22:00 | 39 | 35 | 87 | 30.07 | SSE | 0 | 0.00 |
| 4 | 03/12 | 21:00 | 40 | 34 | 82 | 30.07 | N | 3 | 0.00 |
| 5 | 03/12 | 20:00 | 42 | 36 | 80 | 30.06 | N | 0 | 0.00 |
| 6 | 03/12 | 19:00 | 45 | 36 | 73 | 30.04 | SW | 2 | 0.00 |
| 7 | 03/12 | 18:00 | 49 | 38 | 66 | 30.01 | SW | 0 | 0.00 |
| 8 | 03/12 | 17:00 | 50 | 37 | 63 | 29.99 | S | 5 | 0.00 |
| 9 | 03/12 | 16:00 | 48 | 38 | 70 | 29.99 | S | 4 | 0.00 |
| 10 | 03/12 | 15:00 | 46 | 37 | 72 | 30.00 | SSE | 2 | 0.00 |
| 11 | 03/12 | 14:00 | 45 | 37 | 74 | 30.02 | SSE | 4 | 0.00 |
| 12 | 03/12 | 13:00 | 42 | 35 | 79 | 30.04 | ESE | 2 | 0.00 |
| 13 | 03/12 | 12:00 | 40 | 35 | 84 | 30.05 | S | 4 | 0.00 |
| 14 | 03/12 | 11:00 | 38 | 34 | 88 | 30.08 | S | 6 | 0.00 |
| 15 | miss | miss | miss | miss | miss | miss | miss | miss | |
| 16 | 03/11 | 19:27 | 32 | 30 | 93 | 30.14 | S | 6 | 0.00 |
| 17 | miss | miss | miss | miss | miss | miss | miss | miss | |
| 18 | 03/11 | 19:25 | 32 | 30 | 93 | 30.14 | SSE | 4 | 0.00 |
| 19 | miss | miss | miss | miss | miss | miss | miss | miss | |
| 20 | 03/11 | 19:23 | 32 | 30 | 93 | 30.14 | SSE | 4 | 0.00 |
| 21 | miss | miss | miss | miss | miss | miss | miss | miss | |
| 22 | 03/11 | 19:21 | 32 | 30 | 93 | 30.14 | SE | 4 | 0.00 |
| 23 | miss | miss | miss | miss | miss | miss | miss | miss | |
| 24 | 03/11 | 19:19 | 32 | 30 | 93 | 30.14 | SSE | 3 | 0.00 |
| 25 | miss | miss | miss | miss | miss | miss | miss | miss | |
| 26 | 03/11 | 19:18 | 32 | 30 | 93 | 30.14 | S | 3 | 0.00 |
| 27 | miss | miss | miss | miss | miss | miss | miss | miss | |
| 28 | 03/11 | 19:18 | 32 | 30 | 93 | 30.14 | S | 3 | 0.00 |
| 29 | miss | miss | miss | miss | miss | miss | miss | miss | |
| 30 | 03/11 | 19:00 | 32 | 29 | 92 | 30.14 | SSE | 3 | 0.00 |
| 31 | 03/11 | 18:00 | 33 | 30 | 91 | 30.14 | S | 7 | 0.00 |
| 32 | 03/11 | 17:00 | 33 | 30 | 90 | 30.14 | SSE | 6 | 0.00 |
| 33 | 03/11 | 16:00 | 33 | 30 | 89 | 30.13 | SSE | 7 | 0.00 |
| 34 | 03/11 | 15:00 | 33 | 29 | 86 | 30.14 | SSE | 7 | 0.00 |
| 35 | 03/11 | 14:00 | 32 | 28 | 85 | 30.16 | S | 7 | 0.00 |
| 36 | 03/11 | 13:00 | 32 | 26 | 80 | 30.19 | S | 8 | 0.00 |
| 37 | 03/11 | 12:00 | 32 | 23 | 72 | 30.23 | S | 8 | 0.00 |
| 38 | 03/11 | 11:00 | 31 | 20 | 64 | 30.25 | SSW | 10 | 0.00 |
| 39 | 03/11 | 10:00 | 30 | 19 | 64 | 30.25 | SSW | 6 | 0.00 |
| 40 | 03/11 | 09:00 | 26 | 18 | 72 | 30.26 | S | 4 | 0.00 |
| 41 | 03/11 | 08:00 | 17 | 15 | 93 | 30.27 | ENE | 1 | 0.00 |
| 42 | 03/11 | 07:00 | 13 | 11 | 93 | 30.27 | N | 1 | 0.00 |
| 43 | 03/11 | 06:00 | 12 | 10 | 92 | 30.28 | NNE | 1 | 0.00 |
| 44 | 03/11 | 05:00 | 12 | 9 | 91 | 30.27 | SSW | 0 | 0.00 |
| 45 | 03/11 | 04:00 | 13 | 10 | 89 | 30.25 | S | 0 | 0.00 |
| 46 | 03/11 | 03:00 | 14 | 11 | 88 | 30.25 | SSW | 2 | 0.00 |
| 47 | 03/11 | 02:00 | 15 | 11 | 85 | 30.25 | SW | 2 | 0.00 |
| 48 | 03/11 | 01:00 | 16 | 10 | 79 | 30.25 | SW | 0 | 0.00 |
| 49 | 03/11 | 00:00 | 17 | 10 | 75 | 30.25 | SW | 1 | 0.00 |
| 50 | 03/10 | 23:00 | 19 | 11 | 71 | 30.25 | SW | 1 | 0.00 |
| 51 | 03/10 | 22:00 | 21 | 10 | 62 | 30.25 | WSW | 2 | 0.00 |
| 52 | 03/10 | 21:00 | 22 | 9 | 57 | 30.24 | NW | 2 | 0.00 |
| 53 | 03/10 | 20:00 | 24 | 8 | 52 | 30.23 | NW | 3 | 0.00 |
| 54 | 03/10 | 19:00 | 25 | 8 | 48 | 30.22 | NNW | 3 | 0.00 |
| 55 | 03/10 | 18:00 | 26 | 8 | 47 | 30.19 | W | 8 | 0.00 |
| 56 | 03/10 | 17:00 | 28 | 8 | 43 | 30.15 | WNW | 7 | 0.00 |
| 57 | 03/10 | 16:00 | 28 | 7 | 42 | 30.15 | WNW | 13 | 0.00 |
| 58 | 03/10 | 15:00 | 28 | 8 | 43 | 30.16 | W | 10 | 0.00 |
| 59 | 03/10 | 14:00 | 28 | 9 | 46 | 30.16 | W | 4 | 0.00 |
| 60 | 03/10 | 13:00 | 26 | 7 | 45 | 30.18 | NW | 8 | 0.00 |
| 61 | 03/10 | 12:00 | 26 | 7 | 46 | 30.18 | W | 21 | 0.00 |
| 62 | 03/10 | 11:00 | 24 | 7 | 49 | 30.18 | NW | 8 | 0.00 |
| 63 | 03/10 | 10:00 | 23 | 7 | 50 | 30.18 | NW | 10 | 0.00 |
| 64 | 03/10 | 09:00 | 21 | 6 | 54 | 30.17 | NW | 8 | 0.00 |